LNGHN02 KNFL-KNFL
Flight info
| Callsign | LNGHN02 |
|---|---|
| Flight time | 0h 3m |
| Altitude | 1500 |
| Route | KNFL DCT DESERT TRAINING ROUTE DCT MOA BLOCK DCT KNFL |
| Aircraft | H60/M-SDFGIRY/S |
Departure
| Time | 2026-04-25 19:48 |
|---|---|
| Airport | Fallon Naval Air Station (KNFL) |
Arrival
| Time | 2026-04-25 19:52 |
|---|---|
| Airport | Fallon Naval Air Station (KNFL) |
| Time | Latitude | Longitude | Altitude | Speed | Heading |
|---|---|---|---|---|---|
| 2026-04-25 19:41 | 39.42159 | -118.70867 | 3936 ft | 0 kts | 150° |
| 2026-04-25 19:47 | 39.42160 | -118.70867 | 3936 ft | 0 kts | 157° |
| 2026-04-25 19:47 | 39.42161 | -118.70867 | 3936 ft | 0 kts | 188° |
| 2026-04-25 19:48 | 39.42122 | -118.70872 | 4137 ft | 13 kts | 239° |
| 2026-04-25 19:48 | 39.42126 | -118.71287 | 4289 ft | 109 kts | 304° |
| 2026-04-25 19:48 | 39.42722 | -118.72092 | 4644 ft | 139 kts | 340° |
| 2026-04-25 19:48 | 39.43785 | -118.72201 | 4539 ft | 179 kts | 15° |
| 2026-04-25 19:49 | 39.44859 | -118.71361 | 4376 ft | 173 kts | 33° |
| 2026-04-25 19:49 | 39.44928 | -118.71308 | 4390 ft | 171 kts | 34° |
| 2026-04-25 19:49 | 39.45978 | -118.70444 | 4260 ft | 172 kts | 32° |
| 2026-04-25 19:49 | 39.46959 | -118.69635 | 4380 ft | 165 kts | 32° |
| 2026-04-25 19:50 | 39.48910 | -118.68021 | 4373 ft | 170 kts | 32° |
| 2026-04-25 19:50 | 39.49852 | -118.67212 | 4365 ft | 164 kts | 31° |
| 2026-04-25 19:50 | 39.50822 | -118.66330 | 4367 ft | 175 kts | 34° |
| 2026-04-25 19:51 | 39.51796 | -118.65431 | 4375 ft | 155 kts | 31° |
| 2026-04-25 19:51 | 39.52572 | -118.64664 | 4372 ft | 129 kts | 33° |
| 2026-04-25 19:51 | 39.53221 | -118.63924 | 4371 ft | 133 kts | 38° |
| 2026-04-25 19:51 | 39.53553 | -118.62834 | 4249 ft | 159 kts | 104° |
| 2026-04-25 19:52 | 39.52991 | -118.61923 | 4012 ft | 70 kts | 142° |
| 2026-04-25 19:52 | 39.52906 | -118.61782 | 3921 ft | 0 kts | 170° |
| 2026-04-25 19:52 | 39.52833 | -118.61766 | 3932 ft | 7 kts | 184° |
| 2026-04-25 19:52 | 39.52810 | -118.61789 | 3944 ft | 0 kts | 273° |
| 2026-04-25 19:53 | 39.52811 | -118.61790 | 3953 ft | 0 kts | 278° |
| 2026-04-25 19:53 | 39.52811 | -118.61791 | 3959 ft | 1 kts | 284° |
| 2026-04-25 19:53 | 39.52820 | -118.61797 | 3955 ft | 3 kts | 301° |
| 2026-04-25 19:53 | 39.52816 | -118.61810 | 3960 ft | 2 kts | 345° |
| 2026-04-25 19:54 | 39.52818 | -118.61794 | 3963 ft | 0 kts | 6° |
| 2026-04-25 19:54 | 39.52819 | -118.61792 | 3964 ft | 1 kts | 66° |
| 2026-04-25 19:55 | 39.52820 | -118.61790 | 3963 ft | 0 kts | 68° |
| 2026-04-25 19:55 | 39.52820 | -118.61789 | 3963 ft | 1 kts | 58° |
| 2026-04-25 19:55 | 39.52821 | -118.61788 | 3963 ft | 0 kts | 2° |
| 2026-04-25 19:55 | 39.52821 | -118.61789 | 3963 ft | 1 kts | 1° |
| 2026-04-25 19:56 | 39.52822 | -118.61790 | 3964 ft | 0 kts | 1° |
| 2026-04-25 19:56 | 39.52823 | -118.61789 | 3965 ft | 1 kts | 4° |
| 2026-04-25 19:56 | 39.52824 | -118.61789 | 3964 ft | 1 kts | 4° |
| 2026-04-25 19:56 | 39.52825 | -118.61790 | 3964 ft | 0 kts | 4° |
| 2026-04-25 19:57 | 39.52840 | -118.61788 | 3967 ft | 19 kts | 7° |
| 2026-04-25 19:57 | 39.53124 | -118.61743 | 3971 ft | 49 kts | 7° |
| 2026-04-25 19:57 | 39.53465 | -118.61670 | 3966 ft | 53 kts | 10° |
| 2026-04-25 19:57 | 39.53581 | -118.61622 | 3980 ft | 5 kts | 30° |
| 2026-04-25 19:58 | 39.53588 | -118.61593 | 3985 ft | 2 kts | 52° |
| 2026-04-25 19:58 | 39.53579 | -118.61598 | 3942 ft | 0 kts | 59° |
| 2026-04-25 19:58 | 39.53579 | -118.61597 | 3963 ft | 0 kts | 59° |
| 2026-04-25 19:59 | 39.53590 | -118.61569 | 3976 ft | 3 kts | 94° |
| 2026-04-25 19:59 | 39.53609 | -118.61567 | 3966 ft | 5 kts | 135° |
| 2026-04-25 20:00 | 39.53572 | -118.61545 | 3965 ft | 13 kts | 163° |
| 2026-04-25 20:00 | 39.53559 | -118.61525 | 3961 ft | 6 kts | 165° |
| 2026-04-25 20:00 | 39.53509 | -118.61508 | 3965 ft | 0 kts | 166° |
| 2026-04-25 20:00 | 39.53487 | -118.61482 | 3924 ft | 0 kts | 126° |
| 2026-04-25 20:01 | 39.52399 | -118.62271 | 4281 ft | 150 kts | 238° |
| 2026-04-25 20:01 | 39.51600 | -118.63204 | 4722 ft | 157 kts | 220° |
| 2026-04-25 20:01 | 39.50693 | -118.64234 | 4319 ft | 191 kts | 225° |
| 2026-04-25 20:02 | 39.49667 | -118.65346 | 4270 ft | 190 kts | 222° |
| 2026-04-25 20:02 | 39.48630 | -118.66361 | 4511 ft | 187 kts | 218° |
| 2026-04-25 20:02 | 39.47514 | -118.67345 | 4150 ft | 204 kts | 217° |
| 2026-04-25 20:02 | 39.46396 | -118.68346 | 4179 ft | 179 kts | 216° |
| 2026-04-25 20:03 | 39.45393 | -118.69163 | 4596 ft | 167 kts | 211° |
| 2026-04-25 20:03 | 39.44281 | -118.69749 | 4425 ft | 177 kts | 195° |
| 2026-04-25 20:03 | 39.43076 | -118.69694 | 4335 ft | 171 kts | 169° |
| 2026-04-25 20:03 | 39.41985 | -118.69461 | 4177 ft | 147 kts | 172° |
| 2026-04-25 20:04 | 39.41114 | -118.69629 | 4058 ft | 112 kts | 225° |
| 2026-04-25 20:04 | 39.40885 | -118.70197 | 3965 ft | 33 kts | 264° |
| 2026-04-25 20:04 | 39.40887 | -118.70261 | 3976 ft | 21 kts | 280° |
| 2026-04-25 20:04 | 39.41222 | -118.70553 | 4064 ft | 101 kts | 355° |
| 2026-04-25 20:05 | 39.41867 | -118.70394 | 4150 ft | 37 kts | 272° |
| 2026-04-25 20:05 | 39.41899 | -118.70570 | 3983 ft | 32 kts | 262° |
| 2026-04-25 20:05 | 39.41944 | -118.70864 | 3999 ft | 31 kts | 316° |
| 2026-04-25 20:05 | 39.42132 | -118.70935 | 3975 ft | 27 kts | 79° |
| 2026-04-25 20:06 | 39.42146 | -118.70837 | 3945 ft | 9 kts | 142° |
| 2026-04-25 20:06 | 39.42125 | -118.70822 | 3938 ft | 1 kts | 149° |
| 2026-04-25 20:06 | 39.42126 | -118.70824 | 3936 ft | 0 kts | 139° |
| 2026-04-25 20:06 | 39.42127 | -118.70824 | 3936 ft | 0 kts | 145° |